Time;durP1;ratioP1;P1;durP2;ratioP2;P2;SDS_P1;SDS_P2;PMS_P1;PMS_P2;Temp;Humidity;BMP_temperature;BMP_pressure;BME280_temperature;BME280_humidity;BME280_pressure;Samples;Min_cycle;Max_cycle;Signal;HPM_P1;HPM_P2
2021/07/27 00:02:18;;;;;;;15.90;14.52;;;14.80;89.40;;;;;;5006870;29;20061;-70
2021/07/27 00:04:50;;;;;;;85.65;17.92;;;14.70;90.10;;;;;;5027666;29;20044;-70
2021/07/27 00:07:22;;;;;;;17.75;16.35;;;14.70;91.70;;;;;;5024507;29;20041;-69
2021/07/27 00:09:54;;;;;;;17.73;16.25;;;14.70;90.70;;;;;;5027426;29;20045;-70
2021/07/27 00:12:26;;;;;;;16.77;15.48;;;14.70;91.10;;;;;;5024289;29;20077;-69
2021/07/27 00:14:58;;;;;;;17.13;15.82;;;14.80;90.30;;;;;;5027728;29;20037;-70
2021/07/27 00:17:30;;;;;;;17.83;16.40;;;14.80;90.70;;;;;;5026963;29;20408;-70
2021/07/27 00:20:03;;;;;;;17.08;15.77;;;14.80;91.20;;;;;;5010766;29;20052;-69
2021/07/27 00:22:39;;;;;;;17.17;15.63;;;14.80;90.30;;;;;;5018786;29;20143;-68
2021/07/27 00:25:14;;;;;;;17.20;15.80;;;14.80;90.50;;;;;;5026985;29;20681;-69
2021/07/27 00:27:46;;;;;;;16.60;15.35;;;14.70;90.70;;;;;;5025986;29;20044;-69
2021/07/27 00:30:18;;;;;;;16.38;15.15;;;14.60;90.70;;;;;;5025018;29;20119;-69
2021/07/27 00:32:50;;;;;;;16.98;15.60;;;14.60;90.30;;;;;;5025768;29;20485;-68
2021/07/27 00:35:22;;;;;;;16.65;15.25;;;14.60;90.00;;;;;;5031246;29;21083;-68
2021/07/27 00:38:10;;;;;;;17.08;15.63;;;14.70;90.00;;;;;;5029720;29;20099;-69
2021/07/27 00:40:43;;;;;;;17.98;16.67;;;14.60;90.40;;;;;;5032537;29;20560;-68
2021/07/27 00:43:17;;;;;;;17.60;16.20;;;14.50;91.70;;;;;;5030766;29;20643;-68
2021/07/27 00:45:49;;;;;;;18.05;16.75;;;14.50;92.60;;;;;;5030395;29;20698;-68
2021/07/27 00:48:21;;;;;;;17.90;16.60;;;14.50;92.00;;;;;;5027987;29;20117;-68
2021/07/27 00:50:53;;;;;;;18.02;16.73;;;14.50;92.30;;;;;;5027843;29;20161;-68
2021/07/27 00:53:25;;;;;;;18.08;16.77;;;14.50;91.80;;;;;;5027734;29;20139;-69
2021/07/27 00:55:57;;;;;;;18.27;16.92;;;14.60;91.80;;;;;;5002553;29;20133;-68
2021/07/27 00:58:29;;;;;;;17.80;16.40;;;14.60;91.00;;;;;;5018704;29;20105;-69
2021/07/27 01:01:01;;;;;;;17.80;16.50;;;14.70;90.90;;;;;;5012211;29;20053;-69
2021/07/27 01:03:33;;;;;;;17.90;16.60;;;14.70;90.80;;;;;;5032868;29;20049;-71
2021/07/27 01:06:06;;;;;;;17.85;16.55;;;14.70;91.20;;;;;;5034611;29;20056;-68
2021/07/27 01:08:38;;;;;;;17.95;16.42;;;14.70;90.90;;;;;;5030547;29;20057;-69
2021/07/27 01:11:21;;;;;;;18.52;17.02;;;14.70;90.80;;;;;;5028086;29;20060;-68
2021/07/27 01:13:53;;;;;;;18.05;16.73;;;14.70;91.10;;;;;;5030826;29;20088;-69
2021/07/27 01:16:30;;;;;;;18.45;17.00;;;14.70;90.40;;;;;;5029885;29;20062;-68
2021/07/27 01:19:27;;;;;;;18.05;16.75;;;14.70;90.30;;;;;;5032041;29;20045;-70
2021/07/27 01:44:46;;;;;;;18.25;16.75;;;14.70;89.70;;;;;;5030546;29;20046;-69
2021/07/27 01:47:19;;;;;;;18.02;16.67;;;14.60;89.40;;;;;;5030406;29;20055;-69
2021/07/27 01:49:51;;;;;;;18.00;16.60;;;14.60;90.00;;;;;;5030683;29;20129;-70
2021/07/27 01:52:28;;;;;;;17.90;16.60;;;14.50;89.70;;;;;;5030729;29;20049;-68
2021/07/27 01:55:07;;;;;;;18.30;16.80;;;14.50;90.10;;;;;;5029482;29;20205;-68
2021/07/27 01:57:39;;;;;;;18.45;17.05;;;14.50;90.30;;;;;;5029014;29;20423;-70
2021/07/27 02:00:12;;;;;;;18.42;17.13;;;14.50;90.40;;;;;;5024263;29;20049;-70
2021/07/27 02:02:43;;;;;;;18.55;17.15;;;14.50;90.60;;;;;;5027277;29;20104;-68
2021/07/27 02:05:16;;;;;;;18.75;17.45;;;14.50;90.50;;;;;;5030828;29;20088;-69
2021/07/27 02:07:54;;;;;;;18.98;17.55;;;14.50;90.30;;;;;;5030532;29;20044;-69
2021/07/27 02:10:27;;;;;;;17.58;16.35;;;14.50;90.10;;;;;;5025215;29;20144;-69
2021/07/27 02:13:11;;;;;;;17.55;16.15;;;14.50;90.30;;;;;;5030822;29;20128;-68
2021/07/27 02:15:44;;;;;;;17.52;16.08;;;14.50;90.20;;;;;;5030528;29;20580;-68
2021/07/27 02:18:16;;;;;;;17.90;16.50;;;14.40;90.30;;;;;;5029037;29;20459;-70
2021/07/27 02:20:48;;;;;;;18.60;17.15;;;14.40;90.10;;;;;;5012110;29;20131;-68
2021/07/27 02:23:20;;;;;;;18.17;16.70;;;14.40;90.10;;;;;;5026405;29;20068;-68
2021/07/27 02:25:52;;;;;;;17.83;16.52;;;14.40;90.10;;;;;;5030454;29;20124;-68
2021/07/27 02:28:24;;;;;;;17.63;16.33;;;14.40;90.00;;;;;;5028785;29;20738;-68
2021/07/27 02:30:58;;;;;;;17.50;16.30;;;14.40;90.10;;;;;;5026210;29;20148;-68
2021/07/27 02:33:36;;;;;;;18.10;16.63;;;14.40;89.70;;;;;;5010295;29;20137;-70
2021/07/27 02:36:08;;;;;;;17.10;15.85;;;14.40;89.60;;;;;;5030099;29;20273;-68
2021/07/27 02:38:39;;;;;;;17.42;16.08;;;14.30;89.60;;;;;;5030216;29;20527;-68
2021/07/27 02:41:12;;;;;;;17.30;16.00;;;14.40;89.70;;;;;;5027880;29;20067;-68
2021/07/27 02:43:44;;;;;;;17.52;16.17;;;14.30;89.80;;;;;;5028946;29;20053;-69
2021/07/27 02:46:17;;;;;;;17.05;15.80;;;14.30;89.50;;;;;;5028838;29;20435;-70
2021/07/27 02:48:49;;;;;;;17.25;15.95;;;14.30;89.30;;;;;;5032716;29;20105;-69
2021/07/27 02:51:21;;;;;;;17.48;16.17;;;14.30;89.90;;;;;;5025969;29;20491;-69
2021/07/27 02:53:53;;;;;;;17.17;15.88;;;14.30;90.50;;;;;;5032028;29;20053;-67
2021/07/27 02:56:25;;;;;;;17.70;16.40;;;14.30;89.90;;;;;;5030297;29;20413;-69
2021/07/27 02:58:57;;;;;;;18.27;16.85;;;14.30;89.80;;;;;;5020624;29;20070;-68
2021/07/27 03:01:29;;;;;;;17.65;16.45;;;14.20;89.60;;;;;;5033022;29;20045;-68
2021/07/27 03:04:01;;;;;;;18.10;16.70;;;14.20;89.60;;;;;;5027831;29;20053;-69
2021/07/27 03:06:33;;;;;;;16.80;15.55;;;14.20;89.30;;;;;;5033532;29;20073;-69
2021/07/27 03:12:09;;;;;;;17.00;15.63;;;14.20;89.20;;;;;;5003012;29;20077;-68
2021/07/27 03:14:42;;;;;;;17.38;15.80;;;14.20;89.10;;;;;;5028471;29;20329;-69
2021/07/27 03:17:14;;;;;;;18.05;16.63;;;14.20;89.10;;;;;;5028309;29;20479;-68
2021/07/27 03:19:49;;;;;;;18.15;16.75;;;14.20;89.30;;;;;;5030489;29;20113;-69
2021/07/27 03:22:22;;;;;;;17.60;16.40;;;14.20;89.60;;;;;;5026975;29;20128;-67
2021/07/27 03:24:54;;;;;;;17.55;16.15;;;14.20;89.70;;;;;;5026763;29;20077;-68
2021/07/27 03:27:25;;;;;;;17.67;16.35;;;14.20;90.10;;;;;;5028178;29;20057;-70
2021/07/27 03:29:58;;;;;;;16.88;15.63;;;14.20;90.00;;;;;;5024774;29;20049;-70
2021/07/27 03:32:32;;;;;;;17.45;16.13;;;14.20;89.90;;;;;;5025331;29;20041;-70
2021/07/27 03:35:05;;;;;;;18.10;16.70;;;14.10;90.00;;;;;;5025350;29;20061;-69
2021/07/27 03:37:37;;;;;;;17.00;15.80;;;14.10;90.30;;;;;;5025475;29;20083;-68
2021/07/27 03:40:10;;;;;;;17.60;16.40;;;14.10;89.50;;;;;;5030859;29;20476;-69
2021/07/27 03:42:42;;;;;;;17.10;15.80;;;14.00;89.90;;;;;;5027524;29;20484;-69
2021/07/27 03:45:15;;;;;;;17.52;16.33;;;13.90;89.30;;;;;;5029584;29;20071;-69
2021/07/27 03:47:46;;;;;;;18.58;17.15;;;13.90;89.70;;;;;;5027517;29;20069;-69
2021/07/27 03:50:18;;;;;;;18.00;16.50;;;13.90;89.70;;;;;;5027140;29;20172;-72
2021/07/27 03:52:50;;;;;;;18.38;16.95;;;13.90;89.60;;;;;;5028339;29;20069;-68
2021/07/27 03:55:22;;;;;;;17.77;16.48;;;13.90;89.60;;;;;;5029113;29;20120;-68
2021/07/27 03:57:54;;;;;;;17.65;16.25;;;13.90;89.70;;;;;;5027390;29;20128;-69
2021/07/27 04:00:26;;;;;;;18.13;16.70;;;13.90;89.60;;;;;;5029245;29;20325;-69
2021/07/27 04:02:57;;;;;;;17.50;16.20;;;13.90;90.00;;;;;;5029707;29;20124;-69
2021/07/27 04:05:29;;;;;;;17.63;16.35;;;13.90;89.90;;;;;;5028568;29;20053;-69
2021/07/27 04:08:01;;;;;;;18.92;15.23;;;13.90;89.70;;;;;;5028683;29;20097;-69
2021/07/27 04:10:34;;;;;;;16.73;15.52;;;13.90;89.40;;;;;;5034044;29;20531;-71
2021/07/27 04:13:06;;;;;;;16.73;15.55;;;13.80;89.10;;;;;;5030670;29;20132;-69
2021/07/27 04:15:38;;;;;;;16.83;15.48;;;13.80;89.10;;;;;;5030562;29;20053;-69
2021/07/27 04:18:10;;;;;;;16.38;15.07;;;13.80;88.90;;;;;;5033079;29;20160;-69
2021/07/27 04:20:42;;;;;;;16.70;15.40;;;13.80;89.10;;;;;;5032206;29;20049;-69
2021/07/27 04:23:16;;;;;;;16.38;15.18;;;13.80;89.20;;;;;;5030896;29;20128;-69
2021/07/27 04:25:48;;;;;;;16.58;15.48;;;13.80;88.70;;;;;;5014654;29;20073;-70
2021/07/27 04:28:20;;;;;;;17.33;16.13;;;13.70;89.10;;;;;;5029656;29;20045;-69
2021/07/27 04:30:52;;;;;;;16.42;15.23;;;13.70;89.20;;;;;;5031022;29;20041;-69
2021/07/27 04:33:27;;;;;;;16.38;15.07;;;13.70;89.20;;;;;;5030838;29;20053;-69
2021/07/27 04:35:58;;;;;;;21.83;15.15;;;13.70;88.80;;;;;;5030385;29;20061;-69
2021/07/27 04:38:30;;;;;;;15.77;14.68;;;13.70;88.80;;;;;;5030324;29;20535;-69
2021/07/27 04:41:06;;;;;;;15.45;14.30;;;13.70;88.90;;;;;;5029091;29;20172;-69
2021/07/27 04:43:39;;;;;;;14.90;13.80;;;13.70;89.00;;;;;;5030968;29;20053;-69
2021/07/27 04:46:11;;;;;;;15.35;14.25;;;13.70;88.70;;;;;;5031945;29;20107;-70
2021/07/27 04:48:43;;;;;;;15.70;14.48;;;13.70;88.80;;;;;;5031065;29;20065;-70
2021/07/27 04:51:15;;;;;;;15.60;14.50;;;13.70;88.90;;;;;;5032308;29;20117;-69
2021/07/27 04:53:49;;;;;;;14.80;13.80;;;13.70;89.10;;;;;;5031082;29;20132;-70
2021/07/27 04:56:21;;;;;;;14.80;13.70;;;13.80;88.70;;;;;;5032392;29;20472;-71
2021/07/27 04:58:52;;;;;;;15.02;13.82;;;13.90;88.50;;;;;;5030074;29;20144;-69
2021/07/27 05:01:24;;;;;;;15.20;14.10;;;13.90;88.70;;;;;;5029816;29;20161;-69
2021/07/27 05:03:57;;;;;;;14.85;13.75;;;14.00;88.30;;;;;;5018718;29;20049;-69
2021/07/27 05:06:32;;;;;;;14.18;13.18;;;14.00;88.70;;;;;;5031281;29;20072;-69
2021/07/27 05:09:05;;;;;;;15.02;14.02;;;14.10;88.70;;;;;;5030325;29;20061;-69
2021/07/27 05:11:36;;;;;;;15.20;13.98;;;14.20;88.50;;;;;;5027999;29;20064;-69
2021/07/27 05:14:08;;;;;;;15.05;13.85;;;14.20;90.10;;;;;;5029959;29;20500;-69
2021/07/27 05:16:42;;;;;;;15.02;13.73;;;14.20;91.00;;;;;;5028650;29;20049;-71
2021/07/27 05:19:14;;;;;;;15.18;13.88;;;14.30;89.70;;;;;;5031753;29;20059;-70
2021/07/27 05:21:45;;;;;;;16.35;15.15;;;14.50;89.70;;;;;;5029885;29;20543;-71
2021/07/27 05:24:17;;;;;;;17.05;15.75;;;14.70;89.30;;;;;;5030426;29;20105;-70
2021/07/27 05:26:49;;;;;;;16.27;15.07;;;14.80;90.00;;;;;;5027026;29;20047;-70
2021/07/27 05:29:21;;;;;;;16.42;15.13;;;14.90;90.00;;;;;;5030534;29;20085;-69
2021/07/27 05:31:53;;;;;;;15.73;14.52;;;15.00;90.30;;;;;;5029420;29;20073;-69
2021/07/27 05:34:25;;;;;;;15.93;14.63;;;15.10;90.00;;;;;;5029559;29;20086;-70
2021/07/27 05:36:57;;;;;;;15.30;14.10;;;15.20;89.40;;;;;;5030281;29;20077;-69
2021/07/27 05:39:29;;;;;;;15.43;14.32;;;15.30;89.20;;;;;;5028965;29;20153;-70
2021/07/27 05:42:01;;;;;;;16.02;14.90;;;15.40;88.90;;;;;;5029192;29;20752;-70
2021/07/27 05:44:33;;;;;;;15.40;14.30;;;15.50;88.30;;;;;;5033894;29;20140;-69
2021/07/27 05:47:06;;;;;;;15.80;14.50;;;15.50;88.50;;;;;;5032693;29;20060;-68
2021/07/27 05:49:38;;;;;;;15.50;14.35;;;15.60;88.50;;;;;;5033250;29;20073;-68
2021/07/27 05:52:13;;;;;;;16.67;15.38;;;15.80;88.60;;;;;;5025650;29;20053;-69
2021/07/27 05:54:45;;;;;;;16.55;15.38;;;15.80;88.10;;;;;;5030045;29;20449;-68
2021/07/27 05:57:17;;;;;;;16.13;15.02;;;15.90;88.50;;;;;;5030215;29;20440;-68
2021/07/27 05:59:49;;;;;;;16.35;15.05;;;16.00;88.40;;;;;;5029057;29;20041;-68
2021/07/27 06:02:22;;;;;;;16.58;15.40;;;16.10;88.60;;;;;;5028382;29;20048;-68
2021/07/27 06:04:54;;;;;;;17.60;16.30;;;16.20;88.50;;;;;;5027216;29;20046;-68
2021/07/27 06:07:26;;;;;;;16.75;15.45;;;16.30;87.80;;;;;;5028788;29;20098;-68
2021/07/27 06:09:59;;;;;;;17.27;16.00;;;16.30;88.00;;;;;;5029120;29;20049;-69
2021/07/27 06:12:31;;;;;;;16.52;15.32;;;16.40;87.50;;;;;;5027340;29;20077;-69
2021/07/27 06:15:06;;;;;;;16.67;15.48;;;16.50;87.40;;;;;;5029769;29;20064;-69
2021/07/27 06:17:38;;;;;;;16.35;15.18;;;16.50;86.50;;;;;;5025898;29;20136;-68
2021/07/27 06:20:10;;;;;;;17.75;16.25;;;16.60;87.80;;;;;;5027913;29;20045;-69
2021/07/27 06:22:42;;;;;;;17.27;15.98;;;16.70;87.70;;;;;;5013903;29;20129;-68
2021/07/27 06:25:14;;;;;;;17.55;16.25;;;16.70;87.30;;;;;;5027564;29;20076;-70
2021/07/27 06:27:46;;;;;;;17.95;16.60;;;16.90;87.60;;;;;;5029977;29;20049;-69
2021/07/27 06:30:18;;;;;;;16.90;15.70;;;17.10;86.80;;;;;;5028441;29;20046;-69
2021/07/27 06:32:50;;;;;;;17.33;16.02;;;17.20;86.80;;;;;;5029403;29;20476;-69
2021/07/27 06:35:21;;;;;;;17.25;15.95;;;17.40;86.30;;;;;;5028201;29;20527;-69
2021/07/27 06:37:54;;;;;;;17.55;16.35;;;17.50;85.80;;;;;;5028156;29;20133;-69
2021/07/27 06:40:26;;;;;;;17.48;16.27;;;17.70;86.20;;;;;;5028942;29;20053;-69
2021/07/27 06:42:59;;;;;;;18.00;16.55;;;17.70;85.40;;;;;;5028608;29;20048;-70
2021/07/27 06:45:31;;;;;;;18.23;16.83;;;17.90;84.40;;;;;;5026116;29;20124;-71
2021/07/27 06:48:03;;;;;;;17.88;16.42;;;18.00;83.50;;;;;;5030830;29;20069;-70
2021/07/27 06:50:35;;;;;;;17.67;16.38;;;18.10;83.20;;;;;;5029894;29;20512;-69
2021/07/27 06:53:07;;;;;;;17.48;16.25;;;18.10;83.10;;;;;;5028793;29;20049;-69
2021/07/27 06:55:39;;;;;;;18.10;16.80;;;18.20;83.30;;;;;;5029845;29;20136;-70
2021/07/27 06:58:11;;;;;;;17.40;16.10;;;18.30;83.60;;;;;;5029511;29;20076;-70
2021/07/27 07:00:43;;;;;;;17.45;16.15;;;18.50;82.90;;;;;;5028477;29;20084;-69
2021/07/27 07:03:15;;;;;;;17.25;15.95;;;18.50;80.40;;;;;;5029043;29;20056;-71
2021/07/27 07:05:47;;;;;;;17.73;16.42;;;18.60;79.70;;;;;;5027390;29;20479;-70
2021/07/27 07:08:20;;;;;;;18.05;16.65;;;18.70;81.80;;;;;;5028751;29;20625;-69
2021/07/27 07:10:56;;;;;;;17.50;16.30;;;18.80;79.90;;;;;;5004600;29;20580;-69
2021/07/27 07:13:29;;;;;;;18.35;16.95;;;19.00;80.40;;;;;;5014991;29;20045;-68
2021/07/27 07:16:06;;;;;;;17.80;16.42;;;19.10;81.80;;;;;;5029964;29;20739;-70
2021/07/27 07:18:38;;;;;;;18.00;16.70;;;19.30;81.50;;;;;;5027663;29;20045;-68
2021/07/27 07:21:10;;;;;;;19.33;17.90;;;19.30;79.50;;;;;;5027906;29;20133;-69
2021/07/27 07:23:42;;;;;;;18.05;16.75;;;19.40;79.50;;;;;;5030688;29;20093;-69
2021/07/27 07:26:14;;;;;;;17.92;16.40;;;19.50;78.70;;;;;;5028461;29;20105;-69
2021/07/27 07:28:46;;;;;;;17.98;16.63;;;19.50;78.90;;;;;;5027133;29;20037;-71
2021/07/27 07:31:18;;;;;;;17.88;16.48;;;19.60;78.40;;;;;;5025747;29;20105;-70
2021/07/27 07:33:52;;;;;;;17.45;16.25;;;19.70;77.70;;;;;;5032245;29;20049;-69
2021/07/27 07:36:25;;;;;;;17.77;16.52;;;19.80;76.90;;;;;;5011129;29;20048;-69
2021/07/27 07:38:56;;;;;;;17.83;16.42;;;19.80;76.60;;;;;;5031084;29;20127;-69
2021/07/27 07:41:29;;;;;;;17.50;16.30;;;19.90;77.20;;;;;;5031314;29;20566;-69
2021/07/27 07:44:01;;;;;;;16.75;15.48;;;19.90;76.30;;;;;;5028465;29;20120;-69
2021/07/27 07:46:32;;;;;;;17.00;15.57;;;20.00;75.40;;;;;;5027756;29;20117;-70
2021/07/27 07:49:06;;;;;;;35.10;18.63;;;20.10;74.20;;;;;;5031242;29;20395;-70
2021/07/27 07:51:44;;;;;;;18.08;16.38;;;20.10;74.20;;;;;;5031518;29;20148;-69
2021/07/27 07:54:19;;;;;;;17.42;16.10;;;20.30;73.10;;;;;;5018192;29;20045;-68
2021/07/27 07:56:52;;;;;;;17.45;16.15;;;20.40;73.80;;;;;;5032503;29;20054;-69
2021/07/27 07:59:24;;;;;;;16.83;15.63;;;20.50;72.80;;;;;;5029757;29;20045;-69
2021/07/27 08:01:58;;;;;;;17.13;15.60;;;20.60;73.80;;;;;;5026298;29;20045;-70
2021/07/27 08:04:30;;;;;;;16.50;15.32;;;20.70;75.90;;;;;;5027364;29;20057;-69
2021/07/27 08:07:06;;;;;;;17.30;16.00;;;20.80;75.50;;;;;;5027209;29;20132;-70
2021/07/27 08:09:38;;;;;;;17.15;15.95;;;20.90;74.80;;;;;;5016588;29;20049;-69
2021/07/27 08:12:10;;;;;;;17.90;16.60;;;21.00;74.70;;;;;;5025997;29;20044;-70
2021/07/27 08:14:45;;;;;;;18.08;16.67;;;21.10;75.50;;;;;;5031204;29;20140;-69
2021/07/27 08:17:16;;;;;;;17.42;16.13;;;21.20;75.60;;;;;;5028902;29;20046;-72
2021/07/27 08:19:48;;;;;;;17.35;16.13;;;21.30;73.90;;;;;;5009574;29;20045;-72
2021/07/27 08:22:20;;;;;;;17.60;16.35;;;21.30;74.60;;;;;;5028920;29;20154;-72
2021/07/27 08:24:52;;;;;;;18.63;17.23;;;21.40;74.80;;;;;;5029959;29;20049;-72
2021/07/27 08:27:24;;;;;;;18.38;17.02;;;21.50;74.70;;;;;;5029543;29;20106;-70
2021/07/27 08:29:56;;;;;;;18.15;16.85;;;21.40;72.40;;;;;;5026496;29;20053;-69
2021/07/27 08:32:28;;;;;;;17.98;16.77;;;21.40;74.60;;;;;;5025384;29;20144;-69
2021/07/27 08:35:00;;;;;;;18.38;17.08;;;21.60;74.40;;;;;;5030077;29;20045;-71
2021/07/27 08:37:33;;;;;;;17.70;16.40;;;21.60;73.80;;;;;;5027573;29;20080;-70
2021/07/27 08:40:06;;;;;;;17.15;15.95;;;21.60;73.00;;;;;;5030211;29;20055;-71
2021/07/27 08:42:41;;;;;;;17.52;16.23;;;21.50;72.30;;;;;;5030383;29;20049;-70
2021/07/27 08:45:13;;;;;;;18.58;17.17;;;21.60;71.60;;;;;;5014905;29;20049;-71
2021/07/27 08:47:47;;;;;;;17.10;15.90;;;21.60;71.70;;;;;;5026479;29;20045;-72
2021/07/27 08:50:19;;;;;;;18.33;16.90;;;21.70;71.70;;;;;;5011477;29;20110;-70
2021/07/27 08:52:52;;;;;;;18.05;16.70;;;21.80;71.10;;;;;;5025217;29;20109;-70
2021/07/27 08:55:24;;;;;;;17.52;16.23;;;21.80;71.20;;;;;;5028038;29;20181;-69
2021/07/27 08:57:58;;;;;;;17.55;16.35;;;22.00;70.60;;;;;;5029149;29;20477;-70
2021/07/27 09:00:32;;;;;;;18.98;17.35;;;22.10;72.20;;;;;;5029581;29;20128;-71
2021/07/27 09:03:16;;;;;;;18.65;17.35;;;22.20;70.80;;;;;;5020606;29;20132;-71
2021/07/27 09:06:05;;;;;;;18.25;16.95;;;22.40;71.00;;;;;;5030158;29;20084;-71
2021/07/27 09:08:37;;;;;;;17.83;16.42;;;22.50;72.10;;;;;;5029213;29;20368;-70
2021/07/27 09:11:13;;;;;;;18.63;17.13;;;22.50;71.30;;;;;;5031251;29;20495;-72
2021/07/27 09:13:55;;;;;;;17.63;16.33;;;22.50;71.40;;;;;;5032070;29;20160;-70
2021/07/27 09:16:27;;;;;;;18.08;16.67;;;22.40;71.10;;;;;;5018187;29;20678;-71
2021/07/27 09:19:00;;;;;;;18.02;16.73;;;22.40;72.50;;;;;;5030708;29;20132;-70
2021/07/27 09:21:32;;;;;;;18.08;16.77;;;22.40;71.40;;;;;;5029011;29;20077;-70
2021/07/27 09:24:04;;;;;;;17.92;16.63;;;22.40;72.40;;;;;;5030804;29;20101;-71
2021/07/27 09:26:58;;;;;;;18.10;16.80;;;22.30;72.90;;;;;;5032072;29;20178;-70
2021/07/27 09:29:30;;;;;;;18.05;16.73;;;22.20;73.40;;;;;;5030018;29;20061;-70
2021/07/27 09:32:02;;;;;;;17.90;16.60;;;22.20;72.30;;;;;;5031618;29;20045;-72
2021/07/27 09:34:34;;;;;;;17.77;16.48;;;22.10;72.30;;;;;;5031694;29;20053;-71
2021/07/27 09:37:08;;;;;;;17.73;16.42;;;22.10;72.70;;;;;;5029077;29;20148;-70
2021/07/27 09:39:40;;;;;;;17.98;16.58;;;22.00;73.60;;;;;;5031621;29;20393;-70
2021/07/27 09:42:13;;;;;;;18.25;16.95;;;22.00;73.80;;;;;;5027362;29;20110;-70
2021/07/27 09:44:46;;;;;;;17.75;16.45;;;21.90;73.80;;;;;;5029634;29;20053;-70
2021/07/27 09:47:17;;;;;;;18.05;16.65;;;21.90;72.50;;;;;;5032084;29;20076;-72
2021/07/27 09:49:50;;;;;;;17.58;16.23;;;21.80;73.90;;;;;;5032962;29;20125;-71
2021/07/27 09:52:22;;;;;;;17.20;16.00;;;21.80;73.10;;;;;;5025465;29;20073;-72
2021/07/27 09:54:56;;;;;;;17.48;16.20;;;21.80;73.40;;;;;;5029708;29;20040;-71
2021/07/27 09:57:27;;;;;;;17.58;16.27;;;21.80;74.40;;;;;;5031867;29;20128;-70
2021/07/27 10:00:00;;;;;;;18.65;17.17;;;21.80;73.80;;;;;;5030842;29;20053;-71
2021/07/27 10:02:39;;;;;;;18.05;16.75;;;21.80;73.50;;;;;;5024429;29;20543;-71
2021/07/27 10:05:12;;;;;;;17.27;16.08;;;22.00;73.10;;;;;;5027830;29;20481;-70
2021/07/27 10:07:57;;;;;;;;;;;22.10;72.60;;;;;;5023067;29;20800;-70
2021/07/27 10:10:35;;;;;;;18.08;16.77;;;22.40;71.60;;;;;;5014755;29;20014;-71
2021/07/27 10:13:15;;;;;;;18.75;17.35;;;22.50;72.20;;;;;;5028772;29;20049;-72
2021/07/27 10:15:47;;;;;;;18.13;16.83;;;22.80;72.50;;;;;;5031383;29;20098;-71
2021/07/27 10:18:30;;;;;;;18.88;17.40;;;23.00;71.70;;;;;;5030109;29;20137;-71
2021/07/27 10:21:23;;;;;;;18.90;17.60;;;23.10;71.90;;;;;;5029873;29;20085;-71
2021/07/27 10:24:12;;;;;;;17.77;16.33;;;23.30;69.70;;;;;;5029646;29;20476;-70
2021/07/27 10:26:44;;;;;;;18.08;16.77;;;23.40;70.00;;;;;;5029882;29;20045;-71
2021/07/27 10:29:43;;;;;;;18.70;17.30;;;23.50;67.90;;;;;;5028744;29;20076;-70
2021/07/27 10:32:16;;;;;;;18.52;17.02;;;23.50;69.00;;;;;;5019209;29;20497;-70
2021/07/27 10:34:52;;;;;;;18.30;16.95;;;23.70;69.20;;;;;;5029620;29;20049;-70
2021/07/27 10:37:24;;;;;;;18.35;17.05;;;23.70;67.00;;;;;;5028255;29;20069;-70
2021/07/27 10:39:59;;;;;;;18.77;17.38;;;23.70;69.50;;;;;;5027798;29;20107;-70
2021/07/27 10:42:39;;;;;;;19.38;17.98;;;23.80;68.60;;;;;;5028411;29;20053;-71
2021/07/27 10:45:20;;;;;;;19.48;18.10;;;23.90;69.00;;;;;;5030278;29;20112;-70
2021/07/27 10:47:53;;;;;;;18.67;17.30;;;24.00;69.20;;;;;;5030231;29;20493;-73
2021/07/27 10:50:30;;;;;;;18.55;17.25;;;24.00;67.10;;;;;;5029075;29;20136;-71
2021/07/27 10:53:13;;;;;;;18.88;17.55;;;24.10;69.00;;;;;;5026974;29;20463;-72
2021/07/27 10:55:46;;;;;;;20.45;18.95;;;24.10;68.20;;;;;;5027947;29;20049;-71
2021/07/27 10:58:20;;;;;;;19.20;17.90;;;24.10;68.10;;;;;;5032510;29;20046;-71
2021/07/27 11:00:52;;;;;;;19.50;18.08;;;24.10;68.30;;;;;;5030001;29;20427;-71
2021/07/27 11:03:27;;;;;;;19.52;18.13;;;24.20;70.10;;;;;;5028852;29;20044;-71
2021/07/27 11:06:03;;;;;;;19.50;17.92;;;24.20;67.20;;;;;;5010695;29;20060;-71
2021/07/27 11:08:35;;;;;;;19.27;17.77;;;24.20;70.00;;;;;;5030506;29;20052;-70
2021/07/27 11:11:10;;;;;;;18.75;17.45;;;24.40;71.60;;;;;;5026745;29;20070;-70
2021/07/27 11:13:52;;;;;;;18.98;17.58;;;24.40;66.30;;;;;;5027759;29;20136;-71
2021/07/27 11:16:24;;;;;;;19.67;18.02;;;24.50;67.60;;;;;;5027156;29;20049;-71
2021/07/27 11:18:57;;;;;;;18.90;17.60;;;24.50;67.40;;;;;;5030980;29;20056;-71
2021/07/27 11:21:28;;;;;;;19.77;18.38;;;24.60;68.20;;;;;;5028580;29;20056;-71
2021/07/27 11:24:00;;;;;;;19.08;17.58;;;24.60;69.60;;;;;;5024766;29;20085;-70
2021/07/27 11:26:39;;;;;;;19.23;17.80;;;24.60;67.50;;;;;;5028116;29;20112;-70
2021/07/27 11:29:11;;;;;;;18.85;17.55;;;24.40;64.80;;;;;;5015422;29;20137;-72
2021/07/27 11:31:45;;;;;;;19.05;17.65;;;24.50;67.90;;;;;;5030248;29;20050;-71
2021/07/27 11:34:31;;;;;;;18.75;17.45;;;24.70;67.90;;;;;;5027628;29;20136;-71
2021/07/27 11:37:03;;;;;;;19.58;18.17;;;24.90;68.50;;;;;;5029701;29;20077;-72
2021/07/27 11:39:41;;;;;;;19.45;18.15;;;25.00;67.30;;;;;;5029747;29;20057;-72
2021/07/27 11:42:13;;;;;;;19.80;18.40;;;25.10;64.60;;;;;;5025707;29;20046;-73
2021/07/27 11:44:49;;;;;;;20.23;18.80;;;25.00;62.90;;;;;;5027289;29;20144;-71
2021/07/27 11:47:21;;;;;;;19.33;18.02;;;24.90;64.40;;;;;;5028158;29;20575;-72
2021/07/27 11:49:54;;;;;;;19.98;18.58;;;25.10;64.50;;;;;;5030465;29;20056;-71
2021/07/27 11:52:29;;;;;;;20.33;18.83;;;25.30;65.80;;;;;;5025205;29;20589;-72
2021/07/27 11:55:03;;;;;;;20.60;19.13;;;25.50;65.40;;;;;;5031346;29;20124;-72
2021/07/27 11:57:36;;;;;;;21.08;19.40;;;25.70;64.40;;;;;;5027440;29;20053;-70
2021/07/27 12:00:13;;;;;;;19.67;18.27;;;25.80;63.90;;;;;;5023980;29;20117;-71
2021/07/27 12:02:45;;;;;;;19.75;18.35;;;25.80;64.60;;;;;;5028187;29;20128;-72
2021/07/27 12:05:17;;;;;;;19.75;18.35;;;25.80;64.70;;;;;;5023250;29;20053;-71
2021/07/27 12:07:49;;;;;;;19.95;18.55;;;25.90;63.40;;;;;;5029924;29;20477;-73
2021/07/27 12:10:21;;;;;;;19.70;18.15;;;25.90;62.10;;;;;;5025402;29;20045;-73
2021/07/27 12:12:53;;;;;;;19.85;18.42;;;26.00;62.10;;;;;;5028746;29;20046;-71
2021/07/27 12:15:25;;;;;;;20.13;18.73;;;26.00;64.40;;;;;;5028123;29;20105;-72
2021/07/27 12:17:56;;;;;;;19.70;18.30;;;26.10;64.40;;;;;;5029578;29;20657;-71
2021/07/27 12:20:35;;;;;;;19.35;17.90;;;26.10;62.20;;;;;;5029045;29;20504;-71
2021/07/27 12:23:07;;;;;;;19.50;18.20;;;26.10;64.40;;;;;;5017647;29;20125;-72
2021/07/27 12:26:02;;;;;;;20.08;18.58;;;26.20;65.20;;;;;;5028044;29;20531;-72
2021/07/27 12:28:34;;;;;;;20.08;18.67;;;26.30;64.70;;;;;;5027231;29;20076;-71
2021/07/27 12:31:06;;;;;;;19.92;18.55;;;26.30;59.80;;;;;;5032372;29;20045;-71
2021/07/27 12:33:39;;;;;;;20.10;18.67;;;26.20;65.40;;;;;;5031692;29;20109;-73
2021/07/27 12:36:11;;;;;;;20.25;18.85;;;26.30;62.50;;;;;;5033117;29;20381;-72
2021/07/27 12:38:43;;;;;;;19.92;18.52;;;26.30;64.10;;;;;;5031360;29;20049;-71
2021/07/27 12:41:15;;;;;;;19.73;18.33;;;26.40;62.90;;;;;;5031685;29;20077;-72
2021/07/27 12:43:47;;;;;;;19.63;18.23;;;26.30;62.50;;;;;;5027808;29;20179;-73
2021/07/27 12:46:22;;;;;;;19.55;18.15;;;26.10;63.90;;;;;;5032670;29;20056;-72
2021/07/27 12:48:54;;;;;;;20.00;18.60;;;26.10;63.90;;;;;;5034287;29;20053;-71
2021/07/27 12:51:26;;;;;;;18.73;17.30;;;25.90;65.50;;;;;;5031995;29;20144;-72
2021/07/27 12:53:57;;;;;;;18.65;17.35;;;25.80;65.60;;;;;;5030770;29;20480;-71
2021/07/27 12:56:29;;;;;;;18.50;17.20;;;25.70;63.80;;;;;;5031526;29;20049;-71
2021/07/27 12:59:01;;;;;;;18.70;17.40;;;25.50;65.30;;;;;;5032190;29;20566;-71
2021/07/27 13:01:34;;;;;;;18.88;17.52;;;25.50;63.90;;;;;;5031879;29;20073;-72
2021/07/27 13:04:08;;;;;;;18.70;17.25;;;25.30;67.30;;;;;;5031455;29;20199;-72
2021/07/27 13:06:40;;;;;;;18.15;16.90;;;25.30;67.60;;;;;;5034178;29;20085;-73
2021/07/27 13:09:12;;;;;;;18.65;17.05;;;25.30;68.10;;;;;;5030357;29;20042;-72
2021/07/27 13:11:44;;;;;;;18.13;16.83;;;25.20;66.60;;;;;;5029000;29;20049;-70
2021/07/27 13:14:16;;;;;;;18.00;16.73;;;25.20;67.10;;;;;;5031817;29;20149;-72
2021/07/27 13:16:48;;;;;;;18.98;17.48;;;25.10;65.90;;;;;;5033242;29;20113;-73
2021/07/27 13:19:20;;;;;;;18.25;17.00;;;25.00;67.90;;;;;;5031028;29;20045;-71
2021/07/27 13:21:53;;;;;;;18.35;17.05;;;25.00;67.30;;;;;;5031424;29;20564;-73
2021/07/27 13:24:25;;;;;;;18.00;16.70;;;24.90;68.20;;;;;;5033627;29;20049;-73
2021/07/27 13:26:58;;;;;;;18.23;16.92;;;24.80;68.20;;;;;;5031896;29;20045;-73